Time;durP1;ratioP1;P1;durP2;ratioP2;P2;SDS_P1;SDS_P2;PMS_P1;PMS_P2;Temp;Humidity;BMP_temperature;BMP_pressure;BME280_temperature;BME280_humidity;BME280_pressure;Samples;Min_cycle;Max_cycle;Signal;HPM_P1;HPM_P2
2021/09/30 00:02:20;;;;;;;21.50;14.55;;;11.30;72.70;;;;;;5055379;28;20368;-39
2021/09/30 00:04:45;;;;;;;21.38;13.60;;;11.30;72.70;;;;;;5054982;28;20116;-38
2021/09/30 00:07:11;;;;;;;16.75;11.57;;;11.30;72.50;;;;;;5054901;28;20021;-37
2021/09/30 00:09:42;;;;;;;23.83;11.38;;;11.30;72.20;;;;;;5055361;28;20028;-38
2021/09/30 00:12:14;;;;;;;16.38;11.18;;;11.30;72.20;;;;;;5055131;28;20029;-37
2021/09/30 00:33:39;;;;;;;12.38;9.65;;;11.40;71.20;;;;;;5059332;28;20040;-37
2021/09/30 00:41:23;;;;;;;11.98;9.15;;;11.40;70.90;;;;;;5058547;28;20349;-38
2021/09/30 00:49:22;;;;;;;;;;;11.40;70.80;;;;;;5059292;28;20040;-37
2021/09/30 01:24:31;;;;;;;13.25;7.10;;;11.40;70.10;;;;;;5057693;28;20063;-39
2021/09/30 02:39:48;;;;;;;12.18;8.32;;;12.10;66.40;;;;;;5073984;28;20048;-39
2021/09/30 02:58:33;;;;;;;11.38;8.52;;;12.10;67.10;;;;;;5056296;28;20039;-40
2021/09/30 03:01:07;;;;;;;16.15;8.80;;;12.10;66.40;;;;;;5055519;28;20025;-39
2021/09/30 03:03:36;;;;;;;11.93;8.65;;;12.10;66.40;;;;;;5056178;28;20369;-37
2021/09/30 03:06:05;;;;;;;12.77;8.68;;;12.10;66.40;;;;;;5055803;28;20032;-38
2021/09/30 03:08:34;;;;;;;14.50;8.45;;;12.00;66.20;;;;;;5056133;28;20033;-39
2021/09/30 03:11:01;;;;;;;14.13;8.77;;;12.00;66.20;;;;;;5055769;28;20033;-38
2021/09/30 03:13:30;;;;;;;13.35;9.38;;;12.00;66.30;;;;;;5054810;28;20040;-39
2021/09/30 03:16:04;;;;;;;12.38;8.70;;;12.00;66.20;;;;;;5055517;28;20025;-39
2021/09/30 03:22:13;;;;;;;13.77;10.00;;;12.00;66.20;;;;;;5055698;28;20044;-37
2021/09/30 03:23:51;;;;;;;14.65;9.07;;;12.00;66.20;;;;;;5055098;28;20064;-38
2021/09/30 03:26:18;;;;;;;14.70;9.18;;;12.00;66.10;;;;;;5055434;28;20478;-39
2021/09/30 03:28:45;;;;;;;13.32;9.93;;;12.00;66.10;;;;;;5056031;28;20033;-37
2021/09/30 03:31:13;;;;;;;23.55;11.05;;;12.00;66.10;;;;;;5055184;28;20451;-39
2021/09/30 03:33:40;;;;;;;14.65;10.27;;;12.00;66.20;;;;;;5055874;28;20029;-39
2021/09/30 03:36:06;;;;;;;13.18;9.82;;;12.00;66.20;;;;;;5055246;28;20225;-39
2021/09/30 03:38:32;;;;;;;17.10;9.73;;;12.00;66.20;;;;;;5055781;28;20295;-38
2021/09/30 03:40:57;;;;;;;16.92;10.85;;;12.00;66.10;;;;;;5055337;28;20035;-38
2021/09/30 03:43:23;;;;;;;14.27;9.82;;;12.00;66.20;;;;;;5055544;28;20317;-39
2021/09/30 03:45:49;;;;;;;14.20;10.05;;;12.10;66.20;;;;;;5054925;28;20290;-37
2021/09/30 03:48:15;;;;;;;13.73;10.32;;;12.00;66.30;;;;;;5055594;28;20041;-38
2021/09/30 03:50:54;;;;;;;15.52;10.45;;;12.00;66.30;;;;;;5055376;28;20037;-37
2021/09/30 03:53:38;;;;;;;13.75;10.05;;;12.00;66.40;;;;;;5057442;28;20057;-37
2021/09/30 04:01:17;;;;;;;18.85;10.73;;;12.10;66.50;;;;;;5059388;28;20039;-38
2021/09/30 04:03:44;;;;;;;14.52;9.32;;;12.00;66.50;;;;;;5059335;28;20044;-38
2021/09/30 04:06:10;;;;;;;25.20;12.63;;;12.10;66.40;;;;;;5059199;28;20032;-39
2021/09/30 04:08:36;;;;;;;18.25;11.55;;;12.10;66.30;;;;;;5059354;28;20025;-38
2021/09/30 04:11:01;;;;;;;27.35;15.95;;;12.10;66.30;;;;;;5058708;28;20036;-37
2021/09/30 04:13:27;;;;;;;29.45;17.65;;;12.10;66.10;;;;;;5059018;28;20025;-39
2021/09/30 04:15:54;;;;;;;17.92;12.55;;;12.10;66.10;;;;;;5058801;28;20037;-37
2021/09/30 04:18:19;;;;;;;17.40;11.02;;;12.10;66.00;;;;;;5058717;28;20029;-38
2021/09/30 04:20:45;;;;;;;16.38;11.20;;;12.10;65.90;;;;;;5058738;28;20040;-38
2021/09/30 04:23:11;;;;;;;19.35;10.63;;;12.10;65.80;;;;;;5058765;28;20025;-38
2021/09/30 04:25:38;;;;;;;15.15;10.88;;;12.10;65.80;;;;;;5058655;28;20118;-37
2021/09/30 04:28:04;;;;;;;16.52;10.38;;;12.20;65.60;;;;;;5058591;28;20033;-43
2021/09/30 04:30:29;;;;;;;17.50;10.00;;;12.20;65.50;;;;;;5058700;28;20041;-37
2021/09/30 04:32:55;;;;;;;15.10;9.57;;;12.20;65.40;;;;;;5058598;28;20365;-39
2021/09/30 04:35:21;;;;;;;16.38;9.63;;;12.20;65.40;;;;;;5058077;28;20040;-38
2021/09/30 04:37:46;;;;;;;12.40;9.85;;;12.20;65.30;;;;;;5058326;28;20033;-37
2021/09/30 04:40:12;;;;;;;13.00;9.40;;;12.20;65.10;;;;;;5058508;28;20036;-39
2021/09/30 04:42:38;;;;;;;17.17;9.63;;;12.20;65.00;;;;;;5058242;28;20469;-39
2021/09/30 04:45:05;;;;;;;15.70;10.18;;;12.20;65.20;;;;;;5058075;28;20084;-38
2021/09/30 04:47:30;;;;;;;19.52;10.18;;;12.20;65.10;;;;;;5058045;28;20037;-40
2021/09/30 04:49:56;;;;;;;13.95;10.38;;;12.20;65.00;;;;;;5058289;28;20047;-40
2021/09/30 04:52:22;;;;;;;13.27;9.75;;;12.20;65.00;;;;;;5057997;28;20032;-38
2021/09/30 04:54:48;;;;;;;15.48;10.18;;;12.20;65.00;;;;;;5057781;28;20033;-38
2021/09/30 04:57:15;;;;;;;14.07;9.65;;;12.30;65.20;;;;;;5058077;28;20037;-37
2021/09/30 04:59:41;;;;;;;13.98;9.82;;;12.30;65.20;;;;;;5058232;28;20090;-37
2021/09/30 05:02:07;;;;;;;20.30;10.05;;;12.30;65.20;;;;;;5057547;28;20049;-39
2021/09/30 05:04:33;;;;;;;14.68;10.00;;;12.30;65.10;;;;;;5057803;28;20036;-38
2021/09/30 05:06:59;;;;;;;14.10;9.57;;;12.30;65.00;;;;;;5057819;28;20325;-39
2021/09/30 05:09:26;;;;;;;16.33;9.82;;;12.30;64.90;;;;;;5057820;28;20099;-37
2021/09/30 05:11:55;;;;;;;12.05;9.55;;;12.30;64.80;;;;;;5057573;28;20029;-37
2021/09/30 05:14:21;;;;;;;17.67;10.98;;;12.30;64.70;;;;;;5057828;28;20029;-38
2021/09/30 05:16:49;;;;;;;14.32;10.02;;;12.30;64.70;;;;;;5057428;28;20338;-39
2021/09/30 05:19:15;;;;;;;15.10;10.07;;;12.40;64.50;;;;;;5058050;28;20356;-38
2021/09/30 05:21:41;;;;;;;13.93;9.40;;;12.30;64.50;;;;;;5057685;28;20048;-39
2021/09/30 05:24:07;;;;;;;16.60;10.48;;;12.30;64.30;;;;;;5057587;28;20087;-39
2021/09/30 05:26:33;;;;;;;14.88;11.13;;;12.40;64.40;;;;;;5057501;28;20037;-38
2021/09/30 05:29:00;;;;;;;22.45;12.70;;;12.30;64.30;;;;;;5057685;28;20329;-39
2021/09/30 05:31:27;;;;;;;46.53;26.77;;;12.40;64.20;;;;;;5057246;28;20037;-38
2021/09/30 05:33:52;;;;;;;22.00;14.25;;;12.40;64.10;;;;;;5057187;28;20031;-39
2021/09/30 05:36:18;;;;;;;29.80;16.67;;;12.40;63.90;;;;;;5057051;28;20029;-39
2021/09/30 05:38:45;;;;;;;23.52;12.57;;;12.50;63.80;;;;;;5056941;28;20032;-37
2021/09/30 05:41:10;;;;;;;18.85;11.90;;;12.50;63.60;;;;;;5056760;28;20029;-37
2021/09/30 05:43:38;;;;;;;14.50;9.80;;;12.50;63.40;;;;;;5057407;28;20025;-41
2021/09/30 05:46:05;;;;;;;15.30;9.68;;;12.60;63.20;;;;;;5056747;28;20036;-38
2021/09/30 05:48:31;;;;;;;16.15;9.00;;;12.60;63.10;;;;;;5056990;28;20119;-39
2021/09/30 05:50:57;;;;;;;13.57;8.77;;;12.70;62.80;;;;;;5056503;28;20134;-37
2021/09/30 05:53:23;;;;;;;18.73;14.40;;;12.70;62.30;;;;;;5056478;28;20049;-37
2021/09/30 05:55:50;;;;;;;18.85;12.57;;;12.80;62.10;;;;;;5056633;28;20033;-38
2021/09/30 05:58:16;;;;;;;16.70;11.90;;;12.80;61.70;;;;;;5057096;28;20078;-37
2021/09/30 06:16:35;;;;;;;11.70;7.90;;;13.00;61.50;;;;;;5035936;28;20041;-39
2021/09/30 06:19:02;;;;;;;12.93;7.47;;;13.00;61.30;;;;;;5036720;28;20361;-37
2021/09/30 06:21:28;;;;;;;15.95;9.27;;;13.00;61.10;;;;;;5036288;28;20053;-38
2021/09/30 06:23:53;;;;;;;11.73;8.38;;;13.00;61.00;;;;;;5036452;28;20325;-39
2021/09/30 06:26:19;;;;;;;13.68;9.48;;;13.10;61.20;;;;;;5036266;28;20026;-38
2021/09/30 06:28:45;;;;;;;12.35;7.75;;;13.10;61.40;;;;;;5036256;28;20048;-37
2021/09/30 06:31:10;;;;;;;15.38;8.07;;;13.10;61.20;;;;;;5035956;28;20091;-38
2021/09/30 06:33:36;;;;;;;18.20;9.95;;;13.10;61.30;;;;;;5036210;28;20112;-38
2021/09/30 06:36:02;;;;;;;15.90;8.18;;;13.20;61.50;;;;;;5035008;28;20036;-37
2021/09/30 06:38:28;;;;;;;9.15;6.05;;;13.20;61.50;;;;;;5036463;28;20026;-38
2021/09/30 06:40:54;;;;;;;15.10;7.10;;;13.20;61.30;;;;;;5035706;28;20052;-37
2021/09/30 06:43:19;;;;;;;11.32;6.68;;;13.20;61.20;;;;;;5036034;28;20053;-38
2021/09/30 06:45:45;;;;;;;16.20;11.15;;;13.30;60.80;;;;;;5035509;28;20033;-38
2021/09/30 06:48:11;;;;;;;17.05;11.15;;;13.30;60.60;;;;;;5035558;28;20029;-37
2021/09/30 06:50:36;;;;;;;13.85;9.65;;;13.30;60.60;;;;;;5035608;28;20034;-37
2021/09/30 06:53:05;;;;;;;15.27;10.68;;;13.40;60.40;;;;;;5035298;28;20045;-37
2021/09/30 06:55:31;;;;;;;14.75;6.85;;;13.40;60.00;;;;;;5035654;28;20033;-37
2021/09/30 06:57:57;;;;;;;19.20;14.75;;;13.40;60.00;;;;;;5035553;28;20033;-39
2021/09/30 07:00:23;;;;;;;15.82;7.78;;;13.40;60.10;;;;;;5035268;28;20033;-39
2021/09/30 07:02:49;;;;;;;13.52;8.50;;;13.40;59.70;;;;;;5035423;28;20021;-39
2021/09/30 07:05:15;;;;;;;18.15;12.38;;;13.40;59.50;;;;;;5035351;28;20044;-39
2021/09/30 07:07:41;;;;;;;12.88;8.65;;;13.50;59.30;;;;;;5035621;28;20381;-39
2021/09/30 07:10:11;;;;;;;9.52;7.20;;;13.50;59.30;;;;;;5035188;28;20108;-39
2021/09/30 07:12:38;;;;;;;11.13;7.05;;;13.50;59.20;;;;;;5035785;28;20334;-37
2021/09/30 07:15:04;;;;;;;15.00;10.65;;;13.50;59.00;;;;;;5035187;28;20070;-37
2021/09/30 07:17:30;;;;;;;12.70;8.27;;;13.60;59.10;;;;;;5035020;28;20029;-39
2021/09/30 07:19:57;;;;;;;10.43;7.65;;;13.60;58.80;;;;;;5035113;28;20029;-39
2021/09/30 07:22:24;;;;;;;9.85;6.60;;;13.60;58.80;;;;;;5035566;28;20310;-39
2021/09/30 07:24:50;;;;;;;9.10;6.30;;;13.60;58.80;;;;;;5035013;28;20026;-37
2021/09/30 07:27:16;;;;;;;12.07;7.07;;;13.70;58.60;;;;;;5034189;28;20064;-39
2021/09/30 07:29:42;;;;;;;12.43;7.40;;;13.70;58.40;;;;;;5035150;28;20034;-37
2021/09/30 07:32:07;;;;;;;22.27;11.63;;;13.70;58.20;;;;;;5035333;28;20060;-36
2021/09/30 07:34:33;;;;;;;22.33;10.73;;;13.70;58.40;;;;;;5035370;28;20211;-36
2021/09/30 07:36:59;;;;;;;38.45;16.85;;;13.70;58.30;;;;;;5034649;28;20036;-37
2021/09/30 07:39:25;;;;;;;24.77;12.48;;;13.80;58.50;;;;;;5034935;28;20044;-37
2021/09/30 07:41:52;;;;;;;11.65;8.15;;;13.80;58.30;;;;;;5035303;28;20043;-39
2021/09/30 07:44:18;;;;;;;12.13;7.18;;;13.90;57.70;;;;;;5035444;28;20021;-37
2021/09/30 07:46:45;;;;;;;12.32;6.85;;;13.90;57.70;;;;;;5034600;28;20112;-37
2021/09/30 07:49:12;;;;;;;13.68;10.75;;;14.00;57.60;;;;;;5035586;28;20029;-37
2021/09/30 07:51:41;;;;;;;24.17;13.75;;;14.00;57.70;;;;;;5035315;28;20344;-40
2021/09/30 07:54:07;;;;;;;8.85;6.20;;;14.00;58.40;;;;;;5034621;28;20357;-40
2021/09/30 07:56:33;;;;;;;8.00;5.50;;;14.10;57.50;;;;;;5035226;28;20310;-40
2021/09/30 07:59:00;;;;;;;10.23;6.22;;;14.20;57.00;;;;;;5035140;28;20214;-40
2021/09/30 08:01:25;;;;;;;8.95;5.63;;;14.20;56.90;;;;;;5035303;28;20405;-38
2021/09/30 08:03:51;;;;;;;10.00;5.88;;;14.20;56.80;;;;;;5034974;28;20061;-39
2021/09/30 08:06:18;;;;;;;15.43;9.35;;;14.30;56.80;;;;;;5034749;28;20037;-39
2021/09/30 08:08:44;;;;;;;9.80;5.80;;;14.30;56.80;;;;;;5035159;28;20034;-40
2021/09/30 08:11:09;;;;;;;12.73;5.20;;;14.40;56.80;;;;;;5034592;28;20037;-39
2021/09/30 08:13:36;;;;;;;9.93;5.60;;;14.40;56.30;;;;;;5035278;28;20034;-38
2021/09/30 08:16:02;;;;;;;10.25;6.60;;;14.40;56.20;;;;;;5034366;28;20433;-39
2021/09/30 08:18:27;;;;;;;9.40;5.60;;;14.50;55.60;;;;;;5035362;28;20402;-39
2021/09/30 08:20:54;;;;;;;8.50;5.05;;;14.50;55.50;;;;;;5017226;28;20033;-39
2021/09/30 08:23:20;;;;;;;9.18;5.50;;;14.60;55.60;;;;;;5035048;28;20042;-37
2021/09/30 08:25:46;;;;;;;13.20;5.38;;;14.60;55.50;;;;;;5034684;28;20053;-37
2021/09/30 08:28:12;;;;;;;7.40;5.47;;;14.60;55.30;;;;;;5042730;28;20130;-38
2021/09/30 08:30:40;;;;;;;8.00;6.00;;;14.70;55.50;;;;;;5054504;28;20029;-39
2021/09/30 08:33:08;;;;;;;15.32;5.78;;;14.70;55.40;;;;;;5054544;28;20052;-39
2021/09/30 08:35:34;;;;;;;16.23;12.63;;;14.80;55.20;;;;;;5054331;28;20067;-38
2021/09/30 08:38:00;;;;;;;8.50;5.30;;;14.80;55.00;;;;;;5054681;28;20048;-40
2021/09/30 08:40:26;;;;;;;8.23;5.10;;;14.80;54.80;;;;;;5057365;28;20037;-38
2021/09/30 08:42:52;;;;;;;12.75;7.65;;;14.90;54.30;;;;;;5058412;28;20059;-40
2021/09/30 08:45:22;;;;;;;9.48;5.60;;;14.90;54.30;;;;;;5058318;28;20033;-37
2021/09/30 08:47:56;;;;;;;11.55;5.90;;;15.00;54.40;;;;;;5046821;28;20033;-37
2021/09/30 08:50:23;;;;;;;10.50;5.38;;;15.00;54.50;;;;;;5038036;28;20079;-40
2021/09/30 08:52:49;;;;;;;6.57;4.55;;;15.10;54.60;;;;;;5037797;28;20037;-41
2021/09/30 08:55:15;;;;;;;7.57;4.80;;;15.10;54.20;;;;;;5037720;28;20033;-40
2021/09/30 08:57:45;;;;;;;12.95;5.55;;;15.10;53.50;;;;;;5037413;28;20073;-38
2021/09/30 09:00:12;;;;;;;9.38;5.95;;;15.20;53.20;;;;;;5038065;28;20424;-38
2021/09/30 09:02:46;;;;;;;11.85;4.88;;;15.20;53.20;;;;;;5037644;28;20031;-37
2021/09/30 09:05:14;;;;;;;8.30;4.75;;;15.30;52.80;;;;;;5037835;28;20084;-37
2021/09/30 09:07:54;;;;;;;10.20;5.40;;;15.30;52.90;;;;;;5037738;28;20155;-37
2021/09/30 09:10:22;;;;;;;15.40;8.40;;;15.40;52.90;;;;;;5037727;28;20033;-37
2021/09/30 09:13:05;;;;;;;10.70;4.78;;;15.40;53.40;;;;;;5037394;28;20278;-37
2021/09/30 09:15:47;;;;;;;8.48;5.85;;;15.40;52.60;;;;;;5037145;28;20042;-36
2021/09/30 09:18:23;;;;;;;6.47;4.60;;;15.40;52.60;;;;;;5037734;28;20441;-40
2021/09/30 09:21:15;;;;;;;10.95;7.25;;;15.40;51.70;;;;;;5037233;28;20033;-39
2021/09/30 09:23:52;;;;;;;10.20;6.10;;;15.50;51.90;;;;;;5037168;28;20021;-39
2021/09/30 09:26:27;;;;;;;8.82;6.28;;;15.50;51.70;;;;;;5037481;28;20025;-37
2021/09/30 09:29:09;;;;;;;9.15;5.35;;;15.50;51.50;;;;;;5037616;28;20095;-38
2021/09/30 09:31:46;;;;;;;12.55;5.57;;;15.50;51.10;;;;;;5037011;28;20119;-37
2021/09/30 09:34:36;;;;;;;7.55;4.75;;;15.60;51.10;;;;;;5037429;28;20120;-38
2021/09/30 09:37:30;;;;;;;7.05;4.20;;;15.60;50.60;;;;;;5037151;28;20033;-38
2021/09/30 09:39:58;;;;;;;11.27;5.10;;;15.70;51.00;;;;;;5036863;28;20083;-40
2021/09/30 09:42:29;;;;;;;7.65;4.80;;;15.70;51.10;;;;;;5037071;28;20132;-40
2021/09/30 09:45:00;;;;;;;7.28;4.57;;;15.80;50.50;;;;;;5036776;28;20028;-38
2021/09/30 09:47:31;;;;;;;9.63;4.60;;;15.80;50.40;;;;;;5035625;28;20033;-37
2021/09/30 09:50:13;;;;;;;6.80;4.38;;;15.80;50.10;;;;;;5035629;28;20041;-40
2021/09/30 09:52:48;;;;;;;6.18;4.07;;;15.90;49.90;;;;;;5036767;28;20337;-40
2021/09/30 09:55:21;;;;;;;8.85;4.32;;;15.90;49.60;;;;;;5036806;28;20060;-38
2021/09/30 09:58:19;;;;;;;5.25;3.75;;;16.00;49.70;;;;;;5036869;28;20041;-38
2021/09/30 10:01:02;;;;;;;13.63;5.38;;;16.10;49.30;;;;;;5036487;28;20324;-38
2021/09/30 10:03:32;;;;;;;12.98;4.20;;;16.10;49.10;;;;;;5036989;28;20096;-40
2021/09/30 10:06:04;;;;;;;7.43;5.28;;;16.20;49.10;;;;;;5036100;28;20072;-39
2021/09/30 10:08:32;;;;;;;9.27;4.43;;;16.20;49.80;;;;;;5037091;28;20100;-38
2021/09/30 10:10:57;;;;;;;13.50;6.30;;;16.20;48.90;;;;;;5036280;28;20111;-40
2021/09/30 10:13:25;;;;;;;7.90;4.97;;;16.20;48.80;;;;;;5036526;28;20102;-38
2021/09/30 10:15:54;;;;;;;6.03;4.50;;;16.20;49.00;;;;;;5036243;28;20355;-40
2021/09/30 10:18:24;;;;;;;10.30;4.72;;;16.30;49.00;;;;;;5036479;28;20342;-40
2021/09/30 10:20:51;;;;;;;15.95;6.30;;;16.30;48.70;;;;;;5036238;28;20061;-40
2021/09/30 10:23:23;;;;;;;7.82;4.38;;;16.30;49.10;;;;;;5036156;28;20041;-40
2021/09/30 10:25:51;;;;;;;8.35;4.32;;;16.40;48.80;;;;;;5035746;28;20041;-40
2021/09/30 10:28:17;;;;;;;23.38;4.53;;;16.40;49.10;;;;;;5035353;28;20107;-37
2021/09/30 10:30:51;;;;;;;8.05;4.50;;;16.40;48.20;;;;;;5046561;28;20075;-39
2021/09/30 10:33:38;;;;;;;9.02;4.43;;;16.50;48.30;;;;;;5052033;28;20350;-40
2021/09/30 10:36:03;;;;;;;8.82;5.00;;;16.50;47.90;;;;;;5039304;28;20474;-39
2021/09/30 10:38:33;;;;;;;12.40;6.32;;;16.60;47.70;;;;;;5034954;28;20088;-38
2021/09/30 10:41:05;;;;;;;7.80;5.83;;;16.60;48.20;;;;;;5035665;28;20029;-42
2021/09/30 10:43:41;;;;;;;7.10;4.38;;;16.70;47.90;;;;;;5035528;28;20028;-38
2021/09/30 10:46:08;;;;;;;16.90;11.32;;;16.70;47.00;;;;;;5035731;28;20070;-37
2021/09/30 10:48:34;;;;;;;8.88;5.65;;;16.80;47.30;;;;;;5036195;28;20148;-38
2021/09/30 10:51:07;;;;;;;11.32;6.80;;;16.80;47.30;;;;;;5035236;28;20150;-39
2021/09/30 10:53:44;;;;;;;7.82;4.72;;;16.90;47.20;;;;;;5035453;28;20053;-40
2021/09/30 10:56:38;;;;;;;22.85;6.38;;;17.00;47.20;;;;;;5035795;28;20120;-37
2021/09/30 10:59:07;;;;;;;7.35;4.38;;;17.10;47.10;;;;;;5035682;28;20049;-38
2021/09/30 11:01:33;;;;;;;8.32;4.47;;;17.10;46.50;;;;;;5035539;28;20030;-40
2021/09/30 11:04:04;;;;;;;7.10;3.97;;;17.20;46.30;;;;;;5036008;28;20082;-38
2021/09/30 11:06:31;;;;;;;7.95;4.95;;;17.30;46.30;;;;;;5035406;28;20032;-39
2021/09/30 11:09:16;;;;;;;7.32;4.22;;;17.40;46.30;;;;;;5035901;28;20029;-37
2021/09/30 11:11:51;;;;;;;7.50;4.65;;;17.50;45.30;;;;;;5035460;28;20025;-39
2021/09/30 11:14:22;;;;;;;6.05;3.60;;;17.60;45.60;;;;;;5035569;28;20290;-39
2021/09/30 11:16:53;;;;;;;6.65;4.15;;;17.60;44.70;;;;;;5035423;28;20057;-41
2021/09/30 11:19:43;;;;;;;9.73;3.90;;;17.70;45.20;;;;;;5035604;28;20422;-37
2021/09/30 11:22:11;;;;;;;10.48;6.22;;;17.80;44.70;;;;;;5035146;28;20068;-37
2021/09/30 11:24:57;;;;;;;12.50;4.30;;;17.90;44.60;;;;;;5035104;28;20061;-36
2021/09/30 11:27:29;;;;;;;8.38;4.28;;;18.00;44.40;;;;;;5034934;28;20037;-37
2021/09/30 11:30:22;;;;;;;25.27;8.75;;;18.10;44.80;;;;;;5035164;28;20087;-39
2021/09/30 11:32:48;;;;;;;8.32;5.25;;;18.20;44.40;;;;;;5035398;28;20105;-37
2021/09/30 11:35:14;;;;;;;6.90;4.63;;;18.30;44.70;;;;;;5035137;28;20037;-38
2021/09/30 11:37:44;;;;;;;8.77;5.47;;;18.40;44.50;;;;;;5034844;28;20125;-38
2021/09/30 11:40:14;;;;;;;6.27;3.90;;;18.50;44.40;;;;;;5035145;28;20333;-40
2021/09/30 11:42:47;;;;;;;8.20;4.90;;;18.60;43.90;;;;;;5035075;28;20581;-39
2021/09/30 11:45:17;;;;;;;12.07;4.35;;;18.70;43.20;;;;;;5034921;28;20045;-39
2021/09/30 11:47:46;;;;;;;9.85;4.13;;;18.80;43.20;;;;;;5035109;28;20041;-36
2021/09/30 11:50:26;;;;;;;5.20;4.20;;;18.90;43.20;;;;;;5034850;28;20564;-37
2021/09/30 11:53:10;;;;;;;8.57;4.55;;;19.00;43.30;;;;;;5034707;28;20045;-39
2021/09/30 11:55:40;;;;;;;5.72;4.28;;;19.20;42.90;;;;;;5034651;28;20036;-37
2021/09/30 11:58:08;;;;;;;12.02;4.65;;;19.30;43.00;;;;;;5034701;28;20042;-36
2021/09/30 12:00:33;;;;;;;8.02;4.97;;;19.40;42.80;;;;;;5035117;28;20353;-36
2021/09/30 12:03:05;;;;;;;8.25;5.07;;;19.60;42.60;;;;;;5034649;28;20079;-38
2021/09/30 12:05:36;;;;;;;10.10;5.18;;;19.70;41.90;;;;;;5034956;28;20322;-37
2021/09/30 12:08:03;;;;;;;9.15;6.35;;;19.90;41.60;;;;;;5034855;28;20026;-40
2021/09/30 12:10:31;;;;;;;19.05;7.63;;;20.00;41.10;;;;;;5034176;28;20044;-40
2021/09/30 12:12:57;;;;;;;10.07;5.78;;;20.20;40.80;;;;;;5035045;28;20033;-39
2021/09/30 12:15:24;;;;;;;8.55;4.65;;;20.30;41.10;;;;;;5038556;28;20033;-39
2021/09/30 12:17:50;;;;;;;11.95;8.93;;;20.40;40.80;;;;;;5038283;28;20524;-40
2021/09/30 12:20:18;;;;;;;22.40;17.05;;;20.60;40.60;;;;;;5038834;28;20087;-40
2021/09/30 12:22:53;;;;;;;14.68;6.03;;;20.70;40.20;;;;;;5038604;28;20028;-39
2021/09/30 12:25:25;;;;;;;11.25;7.13;;;20.80;39.50;;;;;;5038724;28;20113;-37
2021/09/30 12:27:53;;;;;;;14.43;8.15;;;20.90;39.40;;;;;;5038593;28;20349;-36
2021/09/30 12:30:24;;;;;;;8.52;5.18;;;21.00;39.00;;;;;;5038222;28;20034;-36
2021/09/30 12:32:53;;;;;;;11.45;4.53;;;21.10;39.00;;;;;;5038276;28;20036;-38
2021/09/30 12:35:26;;;;;;;6.28;4.20;;;21.30;39.20;;;;;;5038382;28;20033;-38
2021/09/30 12:38:05;;;;;;;7.18;4.07;;;21.40;38.80;;;;;;5038221;28;20039;-40
2021/09/30 12:40:34;;;;;;;13.98;4.38;;;21.50;38.20;;;;;;5038133;28;20036;-36
2021/09/30 12:43:07;;;;;;;11.23;4.40;;;21.60;38.00;;;;;;5038305;28;20130;-39
2021/09/30 12:45:39;;;;;;;12.75;4.93;;;21.70;37.80;;;;;;5037843;28;20173;-41
2021/09/30 12:48:14;;;;;;;8.55;3.85;;;21.90;37.50;;;;;;5038020;28;20116;-41
2021/09/30 12:50:50;;;;;;;11.15;4.95;;;22.00;38.00;;;;;;5038020;28;20037;-40
2021/09/30 12:53:18;;;;;;;6.90;4.50;;;22.10;38.00;;;;;;5037780;28;20056;-40
2021/09/30 12:55:45;;;;;;;7.97;4.72;;;22.20;37.60;;;;;;5037873;28;20041;-40
2021/09/30 12:58:31;;;;;;;6.78;4.28;;;22.30;36.50;;;;;;5038176;28;20071;-37
2021/09/30 13:00:58;;;;;;;11.85;4.70;;;22.30;36.50;;;;;;5046835;28;20079;-38
2021/09/30 13:03:25;;;;;;;6.93;4.18;;;22.40;36.80;;;;;;5039294;28;20034;-38
2021/09/30 13:05:53;;;;;;;8.50;4.70;;;22.40;36.50;;;;;;5037583;28;20318;-38
2021/09/30 13:08:35;;;;;;;9.00;5.63;;;22.50;36.60;;;;;;5051009;28;20417;-39
2021/09/30 13:11:22;;;;;;;9.98;5.40;;;22.50;36.50;;;;;;5057212;28;20037;-40
2021/09/30 13:14:23;;;;;;;9.13;5.03;;;22.60;36.60;;;;;;5057615;28;20413;-41
2021/09/30 13:16:55;;;;;;;9.50;4.20;;;22.70;36.60;;;;;;5056836;28;20033;-40
2021/09/30 13:19:47;;;;;;;10.63;4.90;;;22.70;35.90;;;;;;5057078;28;20036;-40
2021/09/30 13:22:15;;;;;;;10.07;4.65;;;22.70;35.90;;;;;;5056907;28;20096;-40
2021/09/30 13:24:42;;;;;;;18.60;7.20;;;22.80;36.00;;;;;;5057392;28;20028;-39
2021/09/30 13:27:11;;;;;;;11.40;5.43;;;22.90;35.70;;;;;;5056618;28;20083;-38
2021/09/30 13:29:37;;;;;;;11.85;4.90;;;22.90;35.50;;;;;;5056965;28;20033;-38
2021/09/30 13:32:03;;;;;;;10.25;4.65;;;23.00;35.60;;;;;;5056510;28;20035;-38
2021/09/30 13:34:29;;;;;;;13.82;6.93;;;23.00;34.90;;;;;;5057325;28;20196;-41
2021/09/30 13:36:55;;;;;;;11.15;4.47;;;23.10;34.90;;;;;;5056487;28;20453;-41
2021/09/30 13:39:20;;;;;;;13.82;7.78;;;23.10;34.60;;;;;;5056708;28;20037;-40
2021/09/30 13:41:46;;;;;;;16.73;5.20;;;23.10;34.50;;;;;;5055942;28;20313;-40
2021/09/30 13:44:12;;;;;;;8.70;4.45;;;23.10;34.30;;;;;;5056490;28;20090;-40
2021/09/30 13:46:38;;;;;;;9.27;4.47;;;23.10;34.20;;;;;;5057023;28;20037;-40
2021/09/30 13:49:03;;;;;;;8.38;3.97;;;23.10;34.20;;;;;;5055621;28;20113;-37
2021/09/30 13:51:32;;;;;;;10.18;4.85;;;23.10;33.90;;;;;;5056635;28;20029;-41
2021/09/30 13:53:58;;;;;;;10.52;3.67;;;23.10;34.10;;;;;;5056572;28;20049;-38
2021/09/30 13:56:25;;;;;;;7.50;3.60;;;23.10;34.10;;;;;;5056466;28;20418;-39
2021/09/30 13:58:51;;;;;;;10.13;3.78;;;23.10;34.00;;;;;;5056938;28;20033;-38
2021/09/30 14:01:16;;;;;;;12.55;4.80;;;23.00;34.10;;;;;;5056808;28;20108;-40
2021/09/30 14:03:42;;;;;;;7.63;4.30;;;23.00;34.00;;;;;;5056709;28;20025;-38
2021/09/30 14:06:08;;;;;;;8.30;4.82;;;23.00;33.90;;;;;;5055592;28;20040;-41
2021/09/30 14:08:34;;;;;;;8.93;4.70;;;23.00;34.00;;;;;;5056648;28;20058;-41
2021/09/30 14:11:00;;;;;;;9.77;5.10;;;22.90;33.90;;;;;;5056382;28;20286;-40
2021/09/30 14:13:26;;;;;;;7.00;3.85;;;22.90;34.00;;;;;;5055410;28;20063;-41
2021/09/30 14:15:51;;;;;;;7.45;3.83;;;22.80;33.90;;;;;;5056370;28;20029;-40
2021/09/30 14:18:17;;;;;;;20.15;11.15;;;22.60;33.90;;;;;;5056500;28;20364;-38
2021/09/30 14:20:44;;;;;;;9.98;5.35;;;22.40;34.40;;;;;;5056657;28;20082;-38
2021/09/30 14:23:11;;;;;;;14.57;5.30;;;22.10;34.60;;;;;;5056778;28;20370;-40
2021/09/30 14:25:37;;;;;;;7.05;4.20;;;21.80;35.10;;;;;;5055615;28;20475;-41
2021/09/30 14:28:03;;;;;;;15.70;6.30;;;21.50;35.10;;;;;;5056097;28;20033;-37
2021/09/30 14:30:29;;;;;;;17.67;7.40;;;21.20;35.60;;;;;;5056158;28;20035;-38
2021/09/30 14:32:55;;;;;;;21.15;8.30;;;20.80;35.90;;;;;;5054369;28;20037;-36
2021/09/30 14:35:20;;;;;;;15.05;8.60;;;20.50;36.40;;;;;;5056179;28;20113;-37
2021/09/30 14:37:46;;;;;;;10.57;4.72;;;20.30;37.10;;;;;;5055230;28;20041;-40
2021/09/30 14:40:13;;;;;;;33.50;18.55;;;20.00;37.50;;;;;;5055718;28;20484;-37
2021/09/30 14:42:39;;;;;;;20.48;12.73;;;19.70;37.90;;;;;;5055978;28;20040;-38
2021/09/30 14:45:06;;;;;;;32.45;17.50;;;19.40;38.10;;;;;;5055982;28;20033;-40
2021/09/30 14:47:32;;;;;;;24.40;10.80;;;19.20;38.80;;;;;;5055700;28;20029;-40
2021/09/30 14:49:57;;;;;;;15.77;9.07;;;19.00;39.20;;;;;;5055780;28;20307;-37
2021/09/30 14:52:24;;;;;;;17.63;13.27;;;18.80;39.90;;;;;;5055541;28;20037;-38
2021/09/30 14:54:50;;;;;;;28.77;12.45;;;18.60;40.10;;;;;;5055589;28;20045;-38
2021/09/30 14:57:16;;;;;;;23.25;10.57;;;18.40;40.60;;;;;;5055549;28;20052;-38
2021/09/30 14:59:42;;;;;;;50.58;20.50;;;18.20;41.00;;;;;;5055660;28;20036;-38
2021/09/30 15:02:08;;;;;;;40.45;18.73;;;18.00;41.70;;;;;;5055400;28;20032;-40
2021/09/30 15:04:34;;;;;;;29.40;10.30;;;17.90;42.20;;;;;;5054121;28;20028;-37
2021/09/30 15:06:59;;;;;;;28.20;11.02;;;17.70;42.70;;;;;;5055378;28;20029;-38
2021/09/30 15:09:25;;;;;;;31.55;12.90;;;17.60;43.40;;;;;;5054674;28;20103;-40
2021/09/30 15:11:51;;;;;;;26.98;11.90;;;17.40;43.70;;;;;;5055507;28;20025;-37
2021/09/30 15:14:17;;;;;;;31.30;11.93;;;17.30;44.00;;;;;;5055910;28;20036;-40
2021/09/30 15:16:52;;;;;;;49.42;15.65;;;17.20;44.40;;;;;;5055443;28;20033;-40
2021/09/30 15:19:22;;;;;;;42.17;13.18;;;17.00;44.80;;;;;;5055889;28;20033;-38
2021/09/30 15:21:48;;;;;;;42.88;10.60;;;16.90;45.50;;;;;;5054972;28;20048;-38
2021/09/30 15:24:15;;;;;;;57.50;13.48;;;16.80;46.20;;;;;;5055678;28;20037;-38
2021/09/30 15:26:43;;;;;;;70.40;13.38;;;16.70;46.70;;;;;;5055538;28;20104;-39
2021/09/30 15:29:10;;;;;;;60.22;12.77;;;16.50;47.10;;;;;;5055720;28;20060;-39
2021/09/30 15:31:36;;;;;;;72.28;14.45;;;16.40;47.60;;;;;;5055465;28;20024;-37
2021/09/30 15:34:02;;;;;;;85.50;16.65;;;16.30;47.90;;;;;;5055682;28;20025;-38
2021/09/30 15:36:29;;;;;;;98.35;16.05;;;16.10;48.00;;;;;;5055262;28;20033;-40
2021/09/30 15:38:59;;;;;;;85.70;13.43;;;16.00;48.30;;;;;;5055478;28;20072;-38
2021/09/30 15:41:25;;;;;;;99.43;15.00;;;15.90;48.80;;;;;;5055580;28;20410;-38
2021/09/30 15:43:51;;;;;;;67.57;15.45;;;15.80;49.20;;;;;;5055313;28;20041;-40